KPTB/PTB METAR and TAF weather

Enter ICAO airport designator
Station Type Date Time Source
KPTB METAR 2021/03/01 22:15 UTC NOAA

KPTB 012215Z AUTO 29003KT 10SM CLR 12/06 A2990 RMK AO2 T01200063


Station Type Date Time Source
KPTB Decoded METAR 2021/03/01 22:15 UTC NOAA

Petersburg, Dinwiddie County Airport, VA, United States (KPTB) 37-11N 077-31W
Mar 01, 2021 - 05:15 PM EST / 2021.03.01 2215 UTC
Wind: from the WNW (290 degrees) at 3 MPH (3 KT):0
Visibility: 10 mile(s):0
Sky conditions: clear
Temperature: 53.6 F (12.0 C)
Dew Point: 43.3 F (6.3 C)
Relative Humidity: 68%
Pressure (altimeter): 29.9 in. Hg (1012 hPa)
ob: KPTB 012215Z AUTO 29003KT 10SM CLR 12/06 A2990 RMK AO2 T01200063
cycle: 22

Station Type Date Time Source
KPTB TAF UTC NOAA

Error!

Example: see airport list